Hoytville, Ohio
Current Conditions -  °F | °C
As of 6:53 PM on Saturday 25 Oct 2014 (Local Time) from KFDY Reporting Station
Haze Haze  
Wind Chill: 17°   Ceiling: Unl
Heat Index: 17°   Visibility: 3mi
Dew Point:   Wind: 14mph
Humidity: 48%   Direction: 260°W
Pressure: 29.82"   Gusts: NA
Location:  41.19°N, 83.78°W
Report Text: KFDY 252253Z AUTO 26012KT 3SM HZ CLR 17/06 A2982 RMK AO2 SLP092 T01720061
Loading
Personal Weather Stations






























Interactive Weather Map
Tropical Storm Tracking
New forecast layout! Learn more

10-Day Weather Forecast

Advertisements
Track Severe Weather on mobile